Nearby METAR Reports

 

TNCA - Queen Beatrix, Lesser Antilles
Distance from station: 0 0km
Updated: 27/07/2017 20:00
Few Clouds
Few Clouds
 Wind from E
Wind: E 30 km/h
Temperature: 29°C
Heat Index: 34°C
Dew Point: 25°C
Humidity: 79%
Barometer: 1010 hPa
Clouds: Few Clouds
Visibility: 10 km
Cloud details: Few Clouds 518 m
2017/07/28 00:00 TNCA 280000Z 08016KT 9999 FEW017 29/25 Q1010 A2983 NOSIG
SVJC - Paraguana/Josefa, Venezuela
Distance from station: S 83km
Updated: 17/10/2016 15:00
NOT Current
Partly Cloudy
Partly Cloudy
 Wind from E
Wind: E 19 km/h
Temperature: 30°C
Heat Index: 33°C
Dew Point: 22°C
Humidity: 62%
Barometer: 1006 hPa
Clouds: Partly Cloudy
Visibility: 7 km
Cloud details: Partly Cloudy 1219 m
2016/10/17 19:00 SVJC 171900Z 09010KT 7000 SCT040 30/22 Q1006
 
TNCC - Hato Air Curacao, Lesser Antilles
Distance from station: ESE 117km
Updated: 27/07/2017 20:00
Few Clouds
Few Clouds
 Wind from ESE
Wind: ESE 17 km/h
Temperature: 28°C
Heat Index: 32°C
Dew Point: 24°C
Humidity: 79%
Barometer: 1012 hPa
Clouds: Few Clouds
Visibility: 10 km
Cloud details: Few Clouds 549 m
2017/07/28 00:00 TNCC 280000Z 12009KT 9999 FEW018 28/24 Q1012 NOSIG
SVCR - Coro/Jose Leonar, Venezuela
Distance from station: SSE 126km
Updated: 28/06/2017 14:00
NOT Current

 Wind from E
Wind: E 19 km/h
Visibility: 10 km
2017/06/28 18:00 SVCR 281800Z 09010KT 9999 BKN01 CHECK TEXT NEW ENDING ADDED KATLYTAA
 
TNCB - Bonaire/Flamingo, Lesser Antilles
Distance from station: ESE 191km
Updated: 27/07/2017 16:55
NOT Current
Few Clouds
Few Clouds
 Wind from E
Wind: E 30 km/h
Temperature: 31°C
Heat Index: 37°C
Dew Point: 24°C
Humidity: 66%
Barometer: 1010 hPa
Clouds: Few Clouds
Visibility: 10 km
Cloud details: Few Clouds 610 m
2017/07/27 20:55 TNCB 272055Z 09016KT 050V120 9999 FEW020 31/24 Q1010
SVMC - Maracaibo/La Chi, Venezuela
Distance from station: SW 285km
Updated: 27/07/2017 20:00
Heavy thunderstorm, Few clouds
Heavy thunderstorm, Few clouds
 Wind from SSE
Wind: SSE 6 km/h
Summary: Heavy Thunderstorm
Clouds: Few Clouds
Visibility: 10 km
Cloud details: Few Clouds 305 m
2017/07/28 00:00 SVMC 280000Z 16003KT 9999 +TS FEW010 CBS BKN013 28/23 Q1009